createdAt,value
2023-02-08T00:00:25.988Z,-4.04
2023-02-08T00:04:20.501Z,-4.02
2023-02-08T00:08:01.584Z,-4.04
2023-02-08T00:11:23.566Z,-4.08
2023-02-08T00:15:01.653Z,-4.09
2023-02-08T00:18:39.048Z,-4.10
2023-02-08T00:22:35.700Z,-4.11
2023-02-08T00:26:16.557Z,-4.08
2023-02-08T00:29:57.352Z,-4.09
2023-02-08T00:33:21.613Z,-4.09
2023-02-08T00:37:18.511Z,-4.14
2023-02-08T00:40:44.954Z,-4.17
2023-02-08T00:44:22.723Z,-4.22
2023-02-08T00:48:19.215Z,-4.21
2023-02-08T00:52:01.756Z,-4.19
2023-02-08T00:55:25.546Z,-4.17
2023-02-08T00:59:03.008Z,-4.11
2023-02-08T01:02:40.681Z,-4.14
2023-02-08T01:06:37.290Z,-4.17
2023-02-08T01:10:00.660Z,-4.22
2023-02-08T01:13:57.803Z,-4.22
2023-02-08T01:17:38.961Z,-4.21
2023-02-08T01:21:26.794Z,-4.22
2023-02-08T01:24:49.470Z,-4.22
2023-02-08T01:28:46.821Z,-4.21
2023-02-08T01:32:28.957Z,-4.15
2023-02-08T01:36:12.216Z,-4.16
2023-02-08T01:40:02.690Z,-4.17
2023-02-08T01:44:13.448Z,-4.17
2023-02-08T01:47:36.853Z,-4.20
2023-02-08T01:51:29.035Z,-4.21
2023-02-08T01:54:58.353Z,-4.21
2023-02-08T01:58:54.475Z,-4.20
2023-02-08T02:02:20.901Z,-4.18
2023-02-08T02:06:08.519Z,-4.16
2023-02-08T02:10:10.046Z,-4.18
2023-02-08T02:13:51.214Z,-4.20
2023-02-08T02:17:16.646Z,-4.20
2023-02-08T02:21:49.712Z,-4.18
2023-02-08T02:26:01.963Z,-4.10
2023-02-08T02:30:21.867Z,-4.06
2023-02-08T02:34:15.962Z,-3.96
2023-02-08T02:37:56.583Z,-3.85
2023-02-08T02:41:48.381Z,-3.75
2023-02-08T02:45:45.776Z,-3.74
2023-02-08T02:49:29.881Z,-3.74
2023-02-08T02:53:20.308Z,-3.70
2023-02-08T02:56:47.655Z,-3.60
2023-02-08T03:00:40.494Z,-3.60
2023-02-08T03:04:17.869Z,-3.60
2023-02-08T03:07:53.151Z,-3.57
2023-02-08T03:11:31.679Z,-3.58
2023-02-08T03:15:27.247Z,-3.60
2023-02-08T03:19:20.551Z,-3.55
2023-02-08T03:22:52.865Z,-3.50
2023-02-08T03:27:11.736Z,-3.49
2023-02-08T03:31:12.078Z,-3.45
2023-02-08T03:34:58.030Z,-3.57
2023-02-08T03:38:29.534Z,-3.61
2023-02-08T03:42:13.992Z,-3.57
2023-02-08T03:45:46.112Z,-3.59
2023-02-08T03:49:21.975Z,-3.62
2023-02-08T03:52:56.395Z,-3.65
2023-02-08T03:56:48.853Z,-3.64
2023-02-08T04:00:37.373Z,-3.58
2023-02-08T04:04:00.888Z,-3.58
2023-02-08T04:07:37.574Z,-3.58
2023-02-08T04:11:33.885Z,-3.54
2023-02-08T04:14:56.638Z,-3.52
2023-02-08T04:18:53.053Z,-3.56
2023-02-08T04:22:34.124Z,-3.58
2023-02-08T04:25:56.714Z,-3.59
2023-02-08T04:29:34.623Z,-3.61
2023-02-08T04:33:32.052Z,-3.59
2023-02-08T04:37:18.868Z,-3.55
2023-02-08T04:40:41.430Z,-3.48
2023-02-08T04:44:18.986Z,-3.40
2023-02-08T04:47:58.366Z,-3.39
2023-02-08T04:51:35.584Z,-3.39
2023-02-08T04:55:12.669Z,-3.43
2023-02-08T04:59:08.576Z,-3.41
2023-02-08T05:02:31.079Z,-3.45
2023-02-08T05:06:08.455Z,-3.54
2023-02-08T05:09:45.980Z,-3.62
2023-02-08T05:13:42.738Z,-3.64
2023-02-08T05:17:23.379Z,-3.62
2023-02-08T05:20:45.741Z,-3.60
2023-02-08T05:24:43.884Z,-3.57
2023-02-08T05:28:06.438Z,-3.54
2023-02-08T05:32:03.573Z,-3.54
2023-02-08T05:35:26.475Z,-3.53
2023-02-08T05:39:06.148Z,-3.52
2023-02-08T05:42:42.568Z,-3.46
2023-02-08T05:46:18.772Z,-3.42
2023-02-08T05:49:56.745Z,-3.38
2023-02-08T05:53:35.696Z,-3.35
2023-02-08T05:57:32.310Z,-3.33
2023-02-08T06:00:55.164Z,-3.33
2023-02-08T06:04:36.763Z,-3.32
2023-02-08T06:08:11.054Z,-3.32
2023-02-08T06:12:07.178Z,-3.29
2023-02-08T06:15:47.990Z,-3.24
2023-02-08T06:19:10.345Z,-3.19
2023-02-08T06:22:47.998Z,-3.14
2023-02-08T06:26:44.538Z,-3.04
2023-02-08T06:30:25.304Z,-2.93
2023-02-08T06:33:47.924Z,-2.82
2023-02-08T06:37:44.168Z,-2.75
2023-02-08T06:41:06.499Z,-2.81
2023-02-08T06:44:54.347Z,-2.90
2023-02-08T06:48:40.677Z,-2.89
2023-02-08T06:52:22.081Z,-2.81
2023-02-08T06:55:48.828Z,-2.78
2023-02-08T06:59:21.991Z,-2.75
2023-02-08T07:03:18.791Z,-2.77
2023-02-08T07:06:40.643Z,-2.75
2023-02-08T07:10:18.776Z,-2.72
2023-02-08T07:14:15.155Z,-2.63
2023-02-08T07:17:37.972Z,-2.55
2023-02-08T07:21:16.623Z,-2.59
2023-02-08T07:24:52.541Z,-2.60
2023-02-08T07:28:49.067Z,-2.52
2023-02-08T07:32:11.768Z,-2.44
2023-02-08T07:35:49.721Z,-2.37
2023-02-08T07:39:45.529Z,-2.33
2023-02-08T07:43:07.736Z,-2.30
2023-02-08T07:46:45.716Z,-2.23
2023-02-08T07:50:42.416Z,-2.17
2023-02-08T07:54:25.461Z,-2.10
2023-02-08T07:58:06.538Z,-2.00
2023-02-08T08:01:47.665Z,-1.90
2023-02-08T08:05:11.250Z,-1.85
2023-02-08T08:08:47.967Z,-1.79
2023-02-08T08:12:25.106Z,-1.75
2023-02-08T08:16:03.037Z,-1.71
2023-02-08T08:19:42.358Z,-1.70
2023-02-08T08:23:20.025Z,-1.68
2023-02-08T08:26:56.077Z,-1.62
2023-02-08T08:30:56.893Z,-1.61
2023-02-08T08:34:38.027Z,-1.52
2023-02-08T08:38:19.213Z,-1.43
2023-02-08T08:41:42.060Z,-1.53
2023-02-08T08:45:19.024Z,-1.45
2023-02-08T08:48:58.514Z,-1.39
2023-02-08T08:52:34.461Z,-1.38
2023-02-08T08:56:12.154Z,-1.38
2023-02-08T09:00:09.293Z,-1.33
2023-02-08T09:03:50.637Z,-1.24
2023-02-08T09:07:14.126Z,-1.19
2023-02-08T09:10:52.037Z,-1.12
2023-02-08T09:14:32.962Z,-1.09
2023-02-08T09:18:07.854Z,-1.10
2023-02-08T09:22:06.687Z,-1.10
2023-02-08T09:25:29.473Z,-1.08
2023-02-08T09:29:28.953Z,-1.01
2023-02-08T09:32:51.377Z,-0.94
2023-02-08T09:36:48.180Z,-0.84
2023-02-08T09:40:24.608Z,-0.74
2023-02-08T09:44:34.776Z,-0.71
2023-02-08T09:48:22.004Z,-0.69
2023-02-08T09:51:58.117Z,-0.65
2023-02-08T09:55:29.504Z,-0.55
2023-02-08T09:59:26.857Z,-0.33
2023-02-08T10:02:50.697Z,-0.10
2023-02-08T10:06:27.722Z,-0.04
2023-02-08T10:10:58.370Z,0.00
2023-02-08T10:14:52.615Z,-0.08
2023-02-08T10:18:46.711Z,-0.02
2023-02-08T10:22:32.491Z,-0.12
2023-02-08T10:26:06.571Z,-0.24
2023-02-08T10:29:51.618Z,-0.32
2023-02-08T10:33:27.296Z,-0.34
2023-02-08T10:36:54.547Z,-0.35
2023-02-08T10:40:35.844Z,-0.32
2023-02-08T10:44:21.220Z,-0.31
2023-02-08T10:47:48.421Z,-0.35
2023-02-08T10:51:45.501Z,-0.38
2023-02-08T10:55:26.889Z,-0.35
2023-02-08T10:59:25.308Z,-0.34
2023-02-08T11:02:51.284Z,-0.22
2023-02-08T11:06:27.773Z,-0.13
2023-02-08T11:10:24.896Z,-0.07
2023-02-08T11:14:16.379Z,0.02
2023-02-08T11:17:38.772Z,0.05
2023-02-08T11:21:40.092Z,0.12
2023-02-08T11:25:35.721Z,0.11
2023-02-08T11:29:24.028Z,0.09
2023-02-08T11:32:49.015Z,0.11
2023-02-08T11:36:24.253Z,0.11
2023-02-08T11:40:27.078Z,0.13
2023-02-08T11:44:16.414Z,0.19
2023-02-08T11:47:38.447Z,0.14
2023-02-08T11:51:37.184Z,0.19
2023-02-08T11:55:16.591Z,0.28
2023-02-08T11:58:40.010Z,0.34
2023-02-08T12:02:38.531Z,0.47
2023-02-08T12:06:26.355Z,0.49
2023-02-08T12:10:04.591Z,0.61
2023-02-08T12:13:42.670Z,0.73
2023-02-08T12:17:22.543Z,0.64
2023-02-08T12:21:01.464Z,0.53
2023-02-08T12:25:12.830Z,0.76
2023-02-08T12:28:52.709Z,0.80
2023-02-08T12:32:49.117Z,0.67
2023-02-08T12:36:45.181Z,0.57
2023-02-08T12:40:51.116Z,0.53
2023-02-08T12:44:28.388Z,0.46
2023-02-08T12:48:40.808Z,0.37
2023-02-08T12:52:27.144Z,0.35
2023-02-08T12:55:51.381Z,0.38
2023-02-08T13:00:22.699Z,0.42
2023-02-08T13:04:12.744Z,0.36
2023-02-08T13:08:08.699Z,0.31
2023-02-08T13:11:38.147Z,0.26
2023-02-08T13:15:30.637Z,0.29
2023-02-08T13:19:05.026Z,0.36
2023-02-08T13:22:55.609Z,0.43
2023-02-08T13:26:27.874Z,0.45
2023-02-08T13:30:19.355Z,0.51
2023-02-08T13:34:01.378Z,0.53
2023-02-08T13:37:31.499Z,0.45
2023-02-08T13:41:23.612Z,0.39
2023-02-08T13:45:07.414Z,0.36
2023-02-08T13:48:53.535Z,0.30
2023-02-08T13:52:46.957Z,0.20
2023-02-08T13:56:44.028Z,0.29
2023-02-08T14:00:33.691Z,0.62
2023-02-08T14:04:16.952Z,0.91
2023-02-08T14:08:00.361Z,0.82
2023-02-08T14:11:49.698Z,0.97
2023-02-08T14:15:39.587Z,1.25
2023-02-08T14:19:18.657Z,1.56
2023-02-08T14:22:50.832Z,1.73
2023-02-08T14:26:24.380Z,1.78
2023-02-08T14:30:15.453Z,1.85
2023-02-08T14:33:42.452Z,1.91
2023-02-08T14:37:18.735Z,2.01
2023-02-08T14:41:49.930Z,1.98
2023-02-08T14:45:39.330Z,1.98
2023-02-08T14:49:02.756Z,1.90
2023-02-08T14:52:40.597Z,1.80
2023-02-08T14:56:51.860Z,1.62
2023-02-08T15:00:22.384Z,1.58
2023-02-08T15:04:01.731Z,1.42
2023-02-08T15:07:56.819Z,1.11
2023-02-08T15:11:40.037Z,0.83
2023-02-08T15:15:35.788Z,0.62
2023-02-08T15:19:26.460Z,0.36
2023-02-08T15:23:23.112Z,0.13
2023-02-08T15:27:20.060Z,-0.12
2023-02-08T15:30:43.968Z,-0.37
2023-02-08T15:34:23.846Z,-0.56
2023-02-08T15:37:59.298Z,-0.71
2023-02-08T15:41:57.337Z,-0.85
2023-02-08T15:45:38.976Z,-1.04
2023-02-08T15:49:27.635Z,-1.18
2023-02-08T15:53:14.901Z,-1.29
2023-02-08T15:56:42.422Z,-1.39
2023-02-08T16:00:21.776Z,-1.50
2023-02-08T16:03:57.402Z,-1.71
2023-02-08T16:07:51.358Z,-1.96
2023-02-08T16:11:35.488Z,-2.14
2023-02-08T16:14:58.759Z,-2.33
2023-02-08T16:18:46.528Z,-2.71
2023-02-08T16:22:13.729Z,-3.05
2023-02-08T16:25:51.379Z,-3.14
2023-02-08T16:29:41.261Z,-3.23
2023-02-08T16:33:09.878Z,-3.38
2023-02-08T16:37:06.492Z,-3.60
2023-02-08T16:40:53.954Z,-3.64
2023-02-08T16:44:23.087Z,-3.64
2023-02-08T16:48:35.230Z,-3.90
2023-02-08T16:52:17.385Z,-4.23
2023-02-08T16:55:39.983Z,-4.28
2023-02-08T16:59:36.461Z,-4.37
2023-02-08T17:03:18.581Z,-4.56
2023-02-08T17:06:59.797Z,-4.63
2023-02-08T17:10:42.045Z,-4.71
2023-02-08T17:14:05.679Z,-4.76
2023-02-08T17:18:02.740Z,-4.74
2023-02-08T17:21:28.024Z,-4.73
2023-02-08T17:25:03.953Z,-4.93
2023-02-08T17:29:00.634Z,-5.05
2023-02-08T17:32:41.677Z,-5.10
2023-02-08T17:36:04.588Z,-5.20
2023-02-08T17:40:00.467Z,-5.32
2023-02-08T17:43:41.711Z,-5.36
2023-02-08T17:47:24.305Z,-5.44
2023-02-08T17:50:50.962Z,-5.44
2023-02-08T17:54:26.630Z,-5.50
2023-02-08T17:58:01.883Z,-5.69
2023-02-08T18:01:58.645Z,-5.72
2023-02-08T18:05:39.691Z,-5.72
2023-02-08T18:09:21.754Z,-5.68
2023-02-08T18:13:02.725Z,-5.58
2023-02-08T18:16:28.274Z,-5.67
2023-02-08T18:20:21.364Z,-5.69
2023-02-08T18:23:45.082Z,-5.68
2023-02-08T18:27:22.552Z,-5.71
2023-02-08T18:31:04.009Z,-5.75
2023-02-08T18:34:37.236Z,-5.79
2023-02-08T18:38:33.100Z,-5.79
2023-02-08T18:42:14.179Z,-5.81
2023-02-08T18:45:37.541Z,-5.88
2023-02-08T18:49:39.869Z,-5.87
2023-02-08T18:53:02.164Z,-5.81
2023-02-08T18:56:42.181Z,-5.74
2023-02-08T19:00:18.932Z,-5.64
2023-02-08T19:03:56.191Z,-5.55
2023-02-08T19:07:51.750Z,-5.53
2023-02-08T19:11:30.029Z,-5.57
2023-02-08T19:14:52.335Z,-5.61
2023-02-08T19:18:32.248Z,-5.66
2023-02-08T19:22:07.924Z,-5.79
2023-02-08T19:25:46.838Z,-5.95
2023-02-08T19:29:23.626Z,-6.08
2023-02-08T19:33:00.844Z,-6.54
2023-02-08T19:36:58.510Z,-6.86
2023-02-08T19:40:40.904Z,-6.89
2023-02-08T19:44:06.651Z,-6.89
2023-02-08T19:48:01.673Z,-6.90
2023-02-08T19:51:25.661Z,-6.93
2023-02-08T19:55:01.719Z,-6.90
2023-02-08T19:58:43.404Z,-6.86
2023-02-08T20:02:39.108Z,-6.82
2023-02-08T20:06:02.246Z,-6.81
2023-02-08T20:09:58.418Z,-6.81
2023-02-08T20:13:21.548Z,-6.88
2023-02-08T20:17:18.663Z,-6.91
2023-02-08T20:21:03.940Z,-6.89
2023-02-08T20:24:27.087Z,-6.83
2023-02-08T20:28:23.359Z,-6.74
2023-02-08T20:32:05.119Z,-6.68
2023-02-08T20:35:26.996Z,-6.67
2023-02-08T20:39:05.446Z,-6.69
2023-02-08T20:42:42.682Z,-6.77
2023-02-08T20:46:26.655Z,-7.09
2023-02-08T20:49:59.617Z,-7.33
2023-02-08T20:53:37.356Z,-7.58
2023-02-08T20:57:32.369Z,-7.85
2023-02-08T21:00:55.717Z,-8.03
2023-02-08T21:04:33.402Z,-8.02
2023-02-08T21:08:10.952Z,-8.08
2023-02-08T21:11:48.002Z,-8.20
2023-02-08T21:15:45.623Z,-8.25
2023-02-08T21:19:08.024Z,-8.32
2023-02-08T21:22:50.720Z,-8.41
2023-02-08T21:26:24.728Z,-8.50
2023-02-08T21:30:19.813Z,-8.56
2023-02-08T21:34:01.465Z,-8.55
2023-02-08T21:37:44.115Z,-8.54
2023-02-08T21:41:25.605Z,-8.45
2023-02-08T21:44:50.437Z,-8.45
2023-02-08T21:48:29.490Z,-8.39
2023-02-08T21:52:24.685Z,-8.33
2023-02-08T21:55:50.934Z,-8.33
2023-02-08T21:59:28.843Z,-8.37
2023-02-08T22:03:26.217Z,-8.42
2023-02-08T22:06:52.970Z,-8.44
2023-02-08T22:10:31.085Z,-8.60
2023-02-08T22:14:04.923Z,-8.79
2023-02-08T22:17:41.855Z,-8.85
2023-02-08T22:21:22.129Z,-8.92
2023-02-08T22:24:57.083Z,-8.97
2023-02-08T22:28:53.270Z,-9.04
2023-02-08T22:32:18.836Z,-9.09
2023-02-08T22:35:55.266Z,-9.20
2023-02-08T22:39:33.203Z,-9.22
2023-02-08T22:43:08.562Z,-9.17
2023-02-08T22:46:46.011Z,-9.25
2023-02-08T22:50:23.974Z,-9.40
2023-02-08T22:54:01.547Z,-9.48
2023-02-08T22:57:39.526Z,-9.46
2023-02-08T23:01:17.939Z,-9.32
2023-02-08T23:05:15.240Z,-9.27
2023-02-08T23:08:40.077Z,-9.23
2023-02-08T23:12:15.427Z,-9.32
2023-02-08T23:15:54.419Z,-9.36
2023-02-08T23:19:32.307Z,-9.26
2023-02-08T23:23:27.148Z,-9.16
2023-02-08T23:26:50.393Z,-9.19
2023-02-08T23:30:46.753Z,-9.25
2023-02-08T23:34:11.445Z,-9.27
2023-02-08T23:37:46.892Z,-9.19
2023-02-08T23:41:44.797Z,-9.13
2023-02-08T23:45:08.175Z,-9.14
2023-02-08T23:49:03.732Z,-9.15
2023-02-08T23:52:45.350Z,-9.14
2023-02-08T23:56:31.311Z,-9.08
2023-02-08T23:59:54.600Z,-9.06
